Time,TemperatureF,DewpointF,PressureIn,WindDirection,WindDirectionDegrees,WindSpeedMPH,WindSpeedGustMPH,Humidity,HourlyPrecipIn,Conditions,Clouds,dailyrainin,SoftwareType,DateUTC
2013-03-18 00:07:00,48.9,36.9,29.89,East,90,2.2,-999.0,63,-99.99,,,0.00,Acu-Link.com,2013-03-18 04:07:00,
2013-03-18 00:22:00,48.6,36.6,29.89,ESE,112,2.2,-999.0,63,-99.99,,,0.00,Acu-Link.com,2013-03-18 04:22:00,
2013-03-18 00:37:00,48.0,36.4,29.89,ESE,112,2.7,-999.0,64,-99.99,,,0.00,Acu-Link.com,2013-03-18 04:37:00,
2013-03-18 00:52:00,47.5,36.3,29.89,NNW,337,2.7,-999.0,65,-99.99,,,0.00,Acu-Link.com,2013-03-18 04:52:00,
2013-03-18 01:08:00,46.9,36.1,29.90,NNE,22,0.0,-999.0,66,-99.99,,,0.00,Acu-Link.com,2013-03-18 05:08:00,
2013-03-18 01:23:00,46.4,36.0,29.89,NE,45,1.7,-999.0,67,-99.99,,,0.00,Acu-Link.com,2013-03-18 05:23:00,
2013-03-18 01:38:00,46.0,36.0,29.89,NNE,22,1.1,-999.0,68,-99.99,,,0.00,Acu-Link.com,2013-03-18 05:38:00,
2013-03-18 01:53:00,45.9,36.3,29.90,East,90,0.0,-999.0,69,-99.99,,,0.00,Acu-Link.com,2013-03-18 05:53:00,
2013-03-18 02:08:00,45.9,36.3,29.90,East,90,2.2,-999.0,69,-99.99,,,0.00,Acu-Link.com,2013-03-18 06:08:00,
2013-03-18 02:23:00,46.0,36.4,29.90,NE,45,3.2,-999.0,69,-99.99,,,0.00,Acu-Link.com,2013-03-18 06:23:00,
2013-03-18 02:38:00,46.0,36.4,29.90,SE,135,2.2,-999.0,69,-99.99,,,0.00,Acu-Link.com,2013-03-18 06:38:00,
2013-03-18 02:53:00,45.9,36.7,29.90,NNE,22,1.1,-999.0,70,-99.99,,,0.00,Acu-Link.com,2013-03-18 06:53:00,
2013-03-18 03:08:00,45.5,36.3,29.91,ESE,112,1.7,-999.0,70,-99.99,,,0.00,Acu-Link.com,2013-03-18 07:08:00,
2013-03-18 03:24:00,45.5,36.7,29.91,ESE,112,3.2,-999.0,71,-99.99,,,0.00,Acu-Link.com,2013-03-18 07:24:00,
2013-03-18 03:39:00,45.1,36.3,29.90,NE,45,1.7,-999.0,71,-99.99,,,0.00,Acu-Link.com,2013-03-18 07:39:00,
2013-03-18 03:54:00,45.0,36.5,29.91,ESE,112,1.1,-999.0,72,-99.99,,,0.00,Acu-Link.com,2013-03-18 07:54:00,
2013-03-18 04:09:00,45.0,36.5,29.91,East,90,3.2,-999.0,72,-99.99,,,0.00,Acu-Link.com,2013-03-18 08:09:00,
2013-03-18 04:25:00,44.6,36.5,29.90,East,90,2.2,-999.0,73,-99.99,,,0.00,Acu-Link.com,2013-03-18 08:25:00,
2013-03-18 04:40:00,44.2,36.4,29.90,ENE,67,2.7,-999.0,74,-99.99,,,0.00,Acu-Link.com,2013-03-18 08:40:00,
2013-03-18 04:55:00,44.2,36.4,29.91,East,90,0.0,-999.0,74,-99.99,,,0.00,Acu-Link.com,2013-03-18 08:55:00,
2013-03-18 05:10:00,44.1,36.7,29.92,East,90,2.2,-999.0,75,-99.99,,,0.00,Acu-Link.com,2013-03-18 09:10:00,
2013-03-18 05:25:00,43.7,36.3,29.91,North,0,2.2,-999.0,75,-99.99,,,0.00,Acu-Link.com,2013-03-18 09:25:00,
2013-03-18 05:40:00,43.5,36.4,29.93,West,270,2.2,-999.0,76,-99.99,,,0.00,Acu-Link.com,2013-03-18 09:40:00,
2013-03-18 05:55:00,43.2,36.2,29.93,ESE,112,1.7,-999.0,76,-99.99,,,0.00,Acu-Link.com,2013-03-18 09:55:00,
2013-03-18 06:10:00,43.0,36.0,29.93,SW,225,1.1,-999.0,76,-99.99,,,0.00,Acu-Link.com,2013-03-18 10:10:00,
2013-03-18 06:25:00,42.8,36.1,29.93,ENE,67,1.1,-999.0,77,-99.99,,,0.00,Acu-Link.com,2013-03-18 10:25:00,
2013-03-18 06:41:00,42.4,36.0,29.93,ESE,112,1.7,-999.0,78,-99.99,,,0.00,Acu-Link.com,2013-03-18 10:41:00,
2013-03-18 06:56:00,41.9,35.6,29.93,SE,135,1.7,-999.0,78,-99.99,,,0.00,Acu-Link.com,2013-03-18 10:56:00,
2013-03-18 07:41:00,41.7,35.7,29.94,East,90,1.1,-999.0,79,-99.99,,,0.00,Acu-Link.com,2013-03-18 11:41:00,
2013-03-18 07:56:00,41.5,35.5,29.94,NNE,22,1.1,-999.0,79,-99.99,,,0.00,Acu-Link.com,2013-03-18 11:56:00,
2013-03-18 09:12:00,41.9,36.8,29.94,ESE,112,1.1,-999.0,82,-99.99,,,0.00,Acu-Link.com,2013-03-18 13:12:00,
2013-03-18 09:27:00,41.9,36.8,29.93,NE,45,1.7,-999.0,82,-99.99,,,0.00,Acu-Link.com,2013-03-18 13:27:00,
2013-03-18 09:42:00,42.4,37.3,29.93,East,90,1.7,-999.0,82,-99.99,,,0.00,Acu-Link.com,2013-03-18 13:42:00,
2013-03-18 09:57:00,42.6,37.5,29.92,SE,135,2.2,-999.0,82,-99.99,,,0.00,Acu-Link.com,2013-03-18 13:57:00,
2013-03-18 10:12:00,42.6,37.2,29.92,ENE,67,1.7,-999.0,81,-99.99,,,0.00,Acu-Link.com,2013-03-18 14:12:00,
2013-03-18 10:27:00,42.6,37.2,29.93,East,90,0.0,-999.0,81,-99.99,,,0.00,Acu-Link.com,2013-03-18 14:27:00,
2013-03-18 10:43:00,42.6,37.2,29.93,WSW,247,0.0,-999.0,81,-99.99,,,0.00,Acu-Link.com,2013-03-18 14:43:00,
2013-03-18 10:58:00,42.8,37.4,29.93,East,90,1.1,-999.0,81,-99.99,,,0.00,Acu-Link.com,2013-03-18 14:58:00,
2013-03-18 11:13:00,42.8,37.4,29.93,East,90,0.0,-999.0,81,-99.99,,,0.00,Acu-Link.com,2013-03-18 15:13:00,
2013-03-18 11:28:00,42.8,37.4,29.93,East,90,1.7,-999.0,81,-99.99,,,0.00,Acu-Link.com,2013-03-18 15:28:00,
2013-03-18 11:43:00,43.2,37.8,29.92,East,90,1.7,-999.0,81,-99.99,,,0.00,Acu-Link.com,2013-03-18 15:43:00,
2013-03-18 11:58:00,43.7,38.3,29.91,ESE,112,1.1,-999.0,81,-99.99,,,0.00,Acu-Link.com,2013-03-18 15:58:00,
2013-03-18 12:14:00,44.2,38.4,29.90,East,90,1.1,-999.0,80,-99.99,,,0.00,Acu-Link.com,2013-03-18 16:14:00,
2013-03-18 12:29:00,44.4,38.3,29.89,ENE,67,2.2,-999.0,79,-99.99,,,0.00,Acu-Link.com,2013-03-18 16:29:00,
2013-03-18 12:44:00,45.0,38.6,29.88,ENE,67,1.1,-999.0,78,-99.99,,,0.00,Acu-Link.com,2013-03-18 16:44:00,
2013-03-18 12:59:00,45.5,38.7,29.89,ENE,67,1.7,-999.0,77,-99.99,,,0.00,Acu-Link.com,2013-03-18 16:59:00,
2013-03-18 13:14:00,45.1,38.0,29.88,NE,45,2.7,-999.0,76,-99.99,,,0.00,Acu-Link.com,2013-03-18 17:14:00,
2013-03-18 13:29:00,45.3,38.2,29.88,NNE,22,2.2,-999.0,76,-99.99,,,0.00,Acu-Link.com,2013-03-18 17:29:00,
2013-03-18 13:44:00,45.0,38.2,29.85,East,90,1.7,-999.0,77,-99.99,,,0.00,Acu-Link.com,2013-03-18 17:44:00,
2013-03-18 13:59:00,45.0,38.6,29.85,East,90,1.7,-999.0,78,-99.99,,,0.00,Acu-Link.com,2013-03-18 17:59:00,
2013-03-18 14:14:00,45.1,39.0,29.84,ESE,112,0.0,-999.0,79,-99.99,,,0.00,Acu-Link.com,2013-03-18 18:14:00,
2013-03-18 14:30:00,45.5,39.4,29.82,East,90,1.1,-999.0,79,-99.99,,,0.00,Acu-Link.com,2013-03-18 18:30:00,
2013-03-18 14:45:00,45.3,38.9,29.83,East,90,1.7,-999.0,78,-99.99,,,0.00,Acu-Link.com,2013-03-18 18:45:00,
2013-03-18 15:00:00,45.3,38.9,29.80,East,90,2.7,-999.0,78,-99.99,,,0.00,Acu-Link.com,2013-03-18 19:00:00,
2013-03-18 15:15:00,45.1,39.0,29.80,East,90,1.1,-999.0,79,-99.99,,,0.00,Acu-Link.com,2013-03-18 19:15:00,
2013-03-18 15:31:00,45.1,39.0,29.80,NE,45,1.7,-999.0,79,-99.99,,,0.00,Acu-Link.com,2013-03-18 19:31:00,
2013-03-18 15:46:00,45.0,39.2,29.79,ESE,112,1.7,-999.0,80,-99.99,,,0.00,Acu-Link.com,2013-03-18 19:46:00,
2013-03-18 16:31:00,45.3,39.8,29.77,ENE,67,1.7,-999.0,81,-99.99,,,0.00,Acu-Link.com,2013-03-18 20:31:00,
2013-03-18 16:46:00,45.3,39.8,29.76,East,90,1.7,-999.0,81,-99.99,,,0.01,Acu-Link.com,2013-03-18 20:46:00,
2013-03-18 17:01:00,45.1,39.9,29.76,ENE,67,1.7,-999.0,82,-99.99,,,0.01,Acu-Link.com,2013-03-18 21:01:00,
2013-03-18 17:16:00,45.1,39.9,29.76,ENE,67,0.0,-999.0,82,-99.99,,,0.01,Acu-Link.com,2013-03-18 21:16:00,
2013-03-18 17:31:00,45.0,39.8,29.75,East,90,1.1,-999.0,82,-99.99,,,0.01,Acu-Link.com,2013-03-18 21:31:00,
2013-03-18 17:47:00,44.6,39.5,29.75,East,90,1.1,-999.0,82,-99.99,,,0.01,Acu-Link.com,2013-03-18 21:47:00,
2013-03-18 18:02:00,44.4,39.3,29.75,WSW,247,0.0,-999.0,82,-99.99,,,0.01,Acu-Link.com,2013-03-18 22:02:00,
2013-03-18 18:17:00,44.1,39.0,29.78,WSW,247,3.2,-999.0,82,-99.99,,,0.01,Acu-Link.com,2013-03-18 22:17:00,
2013-03-18 18:32:00,43.5,38.7,29.77,SSW,202,1.1,-999.0,83,-99.99,,,0.06,Acu-Link.com,2013-03-18 22:32:00,
2013-03-18 18:47:00,42.6,37.8,29.78,North,0,2.2,-999.0,83,-99.99,,,0.30,Acu-Link.com,2013-03-18 22:47:00,
2013-03-18 19:02:00,41.9,37.4,29.78,ESE,112,2.7,-999.0,84,-99.99,,,0.34,Acu-Link.com,2013-03-18 23:02:00,
2013-03-18 19:17:00,41.7,37.2,29.80,North,0,1.1,-999.0,84,-99.99,,,0.38,Acu-Link.com,2013-03-18 23:17:00,
2013-03-18 19:32:00,41.7,37.5,29.78,NE,45,2.7,-999.0,85,-99.99,,,0.40,Acu-Link.com,2013-03-18 23:32:00,
2013-03-18 19:47:00,41.7,37.5,29.77,NNE,22,2.2,-999.0,85,-99.99,,,0.44,Acu-Link.com,2013-03-18 23:47:00,
2013-03-18 20:03:00,41.7,37.5,29.78,East,90,0.0,-999.0,85,-99.99,,,0.48,Acu-Link.com,2013-03-19 00:03:00,
2013-03-18 20:18:00,41.9,37.7,29.81,WSW,247,0.0,-999.0,85,-99.99,,,0.52,Acu-Link.com,2013-03-19 00:18:00,
2013-03-18 20:33:00,42.1,37.9,29.78,East,90,0.0,-999.0,85,-99.99,,,0.56,Acu-Link.com,2013-03-19 00:33:00,
2013-03-18 20:48:00,42.3,38.4,29.76,East,90,0.0,-999.0,86,-99.99,,,0.64,Acu-Link.com,2013-03-19 00:48:00,
2013-03-18 21:03:00,42.1,38.2,29.73,ESE,112,1.1,-999.0,86,-99.99,,,0.71,Acu-Link.com,2013-03-19 01:03:00,
2013-03-18 21:18:00,41.9,38.0,29.70,SE,135,2.2,-999.0,86,-99.99,,,0.71,Acu-Link.com,2013-03-19 01:18:00,
2013-03-18 21:33:00,41.9,38.0,29.71,ESE,112,0.0,-999.0,86,-99.99,,,0.71,Acu-Link.com,2013-03-19 01:33:00,
2013-03-18 21:48:00,41.9,38.0,29.70,ESE,112,1.1,-999.0,86,-99.99,,,0.71,Acu-Link.com,2013-03-19 01:48:00,
2013-03-18 22:03:00,41.9,38.0,29.69,West,270,1.1,-999.0,86,-99.99,,,0.71,Acu-Link.com,2013-03-19 02:03:00,
2013-03-18 22:19:00,41.9,38.0,29.70,WNW,292,0.0,-999.0,86,-99.99,,,0.71,Acu-Link.com,2013-03-19 02:19:00,
2013-03-18 22:34:00,42.1,38.2,29.70,SSW,202,0.0,-999.0,86,-99.99,,,0.71,Acu-Link.com,2013-03-19 02:34:00,
2013-03-18 22:49:00,42.3,38.4,29.71,West,270,0.0,-999.0,86,-99.99,,,0.71,Acu-Link.com,2013-03-19 02:49:00,
2013-03-18 23:04:00,42.4,38.5,29.71,ESE,112,0.0,-999.0,86,-99.99,,,0.71,Acu-Link.com,2013-03-19 03:04:00,
2013-03-18 23:19:00,42.4,38.5,29.71,SSE,157,0.0,-999.0,86,-99.99,,,0.71,Acu-Link.com,2013-03-19 03:19:00,
2013-03-18 23:34:00,42.4,38.5,29.71,ENE,67,0.0,-999.0,86,-99.99,,,0.71,Acu-Link.com,2013-03-19 03:34:00,
2013-03-18 23:49:00,42.4,38.5,29.71,ENE,67,1.1,-999.0,86,-99.99,,,0.71,Acu-Link.com,2013-03-19 03:49:00,